Time;durP1;ratioP1;P1;durP2;ratioP2;P2;SDS_P1;SDS_P2;PMS_P1;PMS_P2;Temp;Humidity;BMP_temperature;BMP_pressure;BME280_temperature;BME280_humidity;BME280_pressure;Samples;Min_cycle;Max_cycle;Signal;HPM_P1;HPM_P2
2022/07/05 00:01:48;;;;;;;0.00;0.00;;;20.90;96.70;19.90;96546.00;;;;5053726;28;20218;-76
2022/07/05 00:04:17;;;;;;;0.00;0.00;;;20.90;96.60;19.80;96552.00;;;;5054027;28;20205;-76
2022/07/05 00:09:27;;;;;;;0.00;0.00;;;20.70;97.80;19.70;96555.00;;;;5053539;28;20639;-76
2022/07/05 00:11:56;;;;;;;0.00;0.00;;;20.70;98.00;19.60;96533.00;;;;5053905;28;20677;-78
2022/07/05 00:14:24;;;;;;;0.00;0.00;;;20.60;98.30;19.50;96530.00;;;;5053764;28;20285;-76
2022/07/05 00:16:52;;;;;;;0.00;0.00;;;20.60;98.40;19.50;96544.00;;;;5055189;28;20191;-77
2022/07/05 00:19:21;;;;;;;0.00;0.00;;;20.50;98.50;19.40;96527.00;;;;5058615;28;20211;-75
2022/07/05 00:21:49;;;;;;;0.00;0.00;;;20.50;99.00;19.50;96555.00;;;;5055506;28;20248;-77
2022/07/05 00:24:17;;;;;;;0.00;0.00;;;20.50;99.00;19.50;96535.00;;;;5056897;28;20248;-77
2022/07/05 00:26:45;;;;;;;0.00;0.00;;;20.50;98.90;19.50;96549.00;;;;5055050;28;20186;-77
2022/07/05 00:29:15;;;;;;;0.00;0.00;;;20.50;99.20;19.50;96541.00;;;;5051935;28;20198;-77
2022/07/05 00:31:43;;;;;;;0.00;0.00;;;20.40;99.40;19.40;96532.00;;;;5053479;28;20209;-78
2022/07/05 00:34:11;;;;;;;0.00;0.00;;;20.40;99.50;19.30;96506.00;;;;5053652;28;20186;-78
2022/07/05 00:36:39;;;;;;;0.00;0.00;;;20.40;99.80;19.20;96522.00;;;;5053599;28;20282;-76
2022/07/05 00:39:09;;;;;;;0.00;0.00;;;20.30;99.80;19.10;96503.00;;;;5052323;28;20210;-76
2022/07/05 00:41:37;;;;;;;0.00;0.00;;;20.20;99.90;19.10;96496.00;;;;5053596;28;20225;-77
2022/07/05 00:44:08;;;;;;;0.00;0.00;;;20.20;99.90;19.00;96508.00;;;;5052366;28;20198;-76
2022/07/05 00:46:39;;;;;;;0.00;0.00;;;20.00;99.90;18.90;96505.00;;;;5051365;28;20198;-76
2022/07/05 00:49:07;;;;;;;0.00;0.00;;;20.00;99.90;18.80;96517.00;;;;5052449;28;20208;-77
2022/07/05 00:51:38;;;;;;;0.00;0.00;;;19.90;99.90;18.90;96520.00;;;;5052180;28;20202;-77
2022/07/05 00:54:27;;;;;;;0.00;0.00;;;19.90;99.90;18.90;96515.00;;;;5052680;28;20210;-78
2022/07/05 00:56:56;;;;;;;0.00;0.00;;;19.90;99.90;18.70;96504.00;;;;5051456;28;20289;-76
2022/07/05 00:59:26;;;;;;;0.00;0.00;;;19.80;99.90;18.70;96503.00;;;;5052900;28;20319;-77
2022/07/05 01:01:55;;;;;;;0.00;0.00;;;19.70;99.90;18.80;96515.00;;;;5052948;28;20289;-76
2022/07/05 01:04:24;;;;;;;0.00;0.00;;;19.80;99.90;18.80;96522.00;;;;5051728;28;20195;-78
2022/07/05 01:06:53;;;;;;;0.00;0.00;;;19.90;99.90;18.80;96510.00;;;;5052215;28;20198;-76
2022/07/05 01:09:24;;;;;;;0.00;0.00;;;19.80;99.90;17.90;96490.00;;;;5054448;28;20228;-76
2022/07/05 01:11:54;;;;;;;0.00;0.00;;;19.70;99.90;18.50;96495.00;;;;5061178;28;20202;-76
2022/07/05 01:14:23;;;;;;;0.00;0.00;;;19.60;99.90;18.40;96476.00;;;;5056313;28;20194;-76
2022/07/05 01:16:55;;;;;;;0.00;0.00;;;19.50;99.90;18.50;96487.00;;;;5054986;28;20198;-77
2022/07/05 01:19:25;;;;;;;0.00;0.00;;;19.50;99.90;18.20;96472.00;;;;5053177;28;20300;-76
2022/07/05 01:21:53;;;;;;;0.00;0.00;;;19.40;99.90;17.90;96446.00;;;;5050933;28;20222;-76
2022/07/05 01:24:23;;;;;;;0.00;0.00;;;19.10;99.90;17.80;96439.00;;;;5052490;28;20190;-76
2022/07/05 01:26:53;;;;;;;0.03;0.03;;;18.90;99.90;17.80;96447.00;;;;5050876;28;20235;-77
2022/07/05 01:29:22;;;;;;;0.00;0.00;;;18.90;99.90;17.60;96436.00;;;;5051998;28;20206;-77
2022/07/05 01:31:50;;;;;;;0.00;0.00;;;18.80;99.90;17.60;96433.00;;;;5052260;28;20202;-76
2022/07/05 01:34:18;;;;;;;0.00;0.00;;;18.80;99.90;17.50;96430.00;;;;5050798;28;20194;-76
2022/07/05 01:36:46;;;;;;;0.00;0.00;;;18.70;99.90;17.50;96433.00;;;;5052105;28;20190;-76
2022/07/05 01:39:15;;;;;;;0.00;0.00;;;18.70;99.90;17.50;96426.00;;;;5050495;28;20294;-76
2022/07/05 01:41:45;;;;;;;0.00;0.00;;;18.70;99.90;17.50;96431.00;;;;5052351;28;20301;-76
2022/07/05 01:44:13;;;;;;;0.00;0.00;;;18.70;99.90;17.50;96424.00;;;;5051978;28;20209;-76
2022/07/05 01:46:43;;;;;;;0.00;0.00;;;18.60;99.90;17.30;96398.00;;;;5050819;28;20198;-76
2022/07/05 01:49:18;;;;;;;0.00;0.00;;;18.40;99.90;17.20;96388.00;;;;5050699;28;20616;-76
2022/07/05 01:51:51;;;;;;;0.00;0.00;;;18.30;99.90;17.10;96395.00;;;;5050896;28;20198;-76
2022/07/05 01:54:20;;;;;;;0.00;0.00;;;18.30;99.90;17.20;96390.00;;;;5050834;28;20235;-77
2022/07/05 01:56:49;;;;;;;0.00;0.00;;;18.30;99.90;17.00;96393.00;;;;5050643;28;20577;-76
2022/07/05 01:59:18;;;;;;;0.00;0.00;;;18.20;99.90;16.90;96388.00;;;;5050265;28;20654;-76
2022/07/05 02:01:46;;;;;;;0.00;0.00;;;18.10;99.90;16.90;96385.00;;;;5051926;28;20190;-76
2022/07/05 02:04:17;;;;;;;0.00;0.00;;;18.00;99.90;16.90;96397.00;;;;5050508;28;20194;-76
2022/07/05 02:06:46;;;;;;;0.00;0.00;;;18.00;99.90;16.80;96370.00;;;;5052138;28;20260;-76
2022/07/05 02:09:14;;;;;;;0.00;0.00;;;17.90;99.90;16.70;96371.00;;;;5054264;28;20692;-76
2022/07/05 02:11:42;;;;;;;0.00;0.00;;;17.80;99.90;16.60;96370.00;;;;5054585;28;20289;-75
2022/07/05 02:14:11;;;;;;;0.00;0.00;;;17.80;99.90;16.50;96356.00;;;;5054469;28;20202;-75
2022/07/05 02:16:41;;;;;;;0.00;0.00;;;17.60;99.90;16.50;96348.00;;;;5055139;28;20746;-77
2022/07/05 02:19:09;;;;;;;0.00;0.00;;;17.60;99.90;16.40;96335.00;;;;5055842;28;20211;-76
2022/07/05 02:21:41;;;;;;;0.00;0.00;;;17.50;99.90;16.20;96315.00;;;;5055235;28;20198;-76
2022/07/05 02:24:13;;;;;;;0.10;0.10;;;17.30;99.90;16.20;96322.00;;;;5054998;28;20281;-76
2022/07/05 02:26:59;;;;;;;0.00;0.00;;;17.30;99.90;16.20;96322.00;;;;5058587;28;20228;-76
2022/07/05 02:29:28;;;;;;;0.00;0.00;;;17.30;99.90;16.20;96333.00;;;;5054926;28;20220;-76
2022/07/05 02:31:57;;;;;;;0.00;0.00;;;17.30;99.90;16.20;96334.00;;;;5054224;28;20198;-76
2022/07/05 02:34:27;;;;;;;0.00;0.00;;;17.30;99.90;16.10;96340.00;;;;5055428;28;20186;-76
2022/07/05 02:36:56;;;;;;;0.00;0.00;;;17.40;99.90;16.10;96348.00;;;;5053796;28;20199;-76
2022/07/05 02:39:24;;;;;;;0.00;0.00;;;17.40;99.90;16.00;96327.00;;;;5055038;28;20211;-76
2022/07/05 02:41:55;;;;;;;0.00;0.00;;;17.30;99.90;15.90;96336.00;;;;5053741;28;20195;-76
2022/07/05 02:44:23;;;;;;;0.00;0.00;;;17.20;99.90;15.80;96325.00;;;;5054148;28;20226;-76
2022/07/05 02:46:54;;;;;;;0.00;0.00;;;17.10;99.90;15.80;96309.00;;;;5054140;28;20572;-75
2022/07/05 02:49:23;;;;;;;0.00;0.00;;;16.90;99.90;15.80;96322.00;;;;5053568;28;20214;-76
2022/07/05 02:51:51;;;;;;;0.00;0.00;;;17.00;99.90;15.90;96329.00;;;;5052571;28;20205;-76
2022/07/05 02:54:19;;;;;;;0.00;0.00;;;17.00;99.90;15.80;96315.00;;;;5053677;28;20209;-76
2022/07/05 02:56:47;;;;;;;0.00;0.00;;;17.00;99.90;15.80;96323.00;;;;5053803;28;20225;-75
2022/07/05 02:59:16;;;;;;;0.00;0.00;;;16.90;99.90;15.70;96326.00;;;;5053255;28;20190;-76
2022/07/05 03:01:44;;;;;;;0.00;0.00;;;16.90;99.90;15.60;96321.00;;;;5054898;28;20187;-76
2022/07/05 03:04:17;;;;;;;0.00;0.00;;;16.80;99.90;15.50;96322.00;;;;5053709;28;20705;-76
2022/07/05 03:06:52;;;;;;;0.00;0.00;;;16.60;99.90;15.50;96347.00;;;;5053476;28;20205;-76
2022/07/05 03:09:24;;;;;;;0.00;0.00;;;16.70;99.90;15.50;96355.00;;;;5054007;28;20581;-76
2022/07/05 03:11:53;;;;;;;0.00;0.00;;;16.70;99.90;15.50;96360.00;;;;5053900;28;20627;-76
2022/07/05 03:14:22;;;;;;;0.00;0.00;;;16.60;99.90;15.40;96377.00;;;;5053852;28;20229;-75
2022/07/05 03:16:51;;;;;;;0.00;0.00;;;16.60;99.90;15.50;96319.00;;;;5053608;28;20646;-76
2022/07/05 03:19:23;;;;;;;0.00;0.00;;;16.70;99.90;15.40;96311.00;;;;5052776;28;20214;-75
2022/07/05 03:21:51;;;;;;;0.00;0.00;;;16.60;99.90;15.30;96306.00;;;;5053280;28;20607;-75
2022/07/05 03:24:20;;;;;;;0.03;0.03;;;16.60;99.90;15.40;96329.00;;;;5054000;28;20271;-75
2022/07/05 03:26:49;;;;;;;0.00;0.00;;;16.60;99.90;15.30;96325.00;;;;5053905;28;20199;-76
2022/07/05 03:29:17;;;;;;;0.00;0.00;;;16.60;99.90;15.40;96330.00;;;;5054411;28;20268;-76
2022/07/05 03:31:46;;;;;;;0.00;0.00;;;16.60;99.90;15.20;96321.00;;;;5053814;28;20573;-76
2022/07/05 03:34:14;;;;;;;0.00;0.00;;;16.50;99.90;15.10;96290.00;;;;5055011;28;20194;-75
2022/07/05 03:36:44;;;;;;;0.00;0.00;;;16.40;99.90;15.00;96280.00;;;;5055836;28;20588;-76
2022/07/05 03:39:17;;;;;;;0.00;0.00;;;16.30;99.90;15.00;96295.00;;;;5055357;28;20202;-76
2022/07/05 03:41:46;;;;;;;0.00;0.00;;;16.20;99.90;14.90;96268.00;;;;5056204;28;20747;-75
2022/07/05 03:44:19;;;;;;;0.00;0.00;;;16.10;99.90;14.80;96253.00;;;;5060612;28;20244;-76
2022/07/05 03:46:47;;;;;;;0.00;0.00;;;16.00;99.90;14.90;96269.00;;;;5065034;28;20248;-75
2022/07/05 03:49:18;;;;;;;0.00;0.00;;;16.10;99.90;14.90;96286.00;;;;5065553;28;20224;-75
2022/07/05 03:51:50;;;;;;;0.00;0.00;;;16.10;99.90;15.00;96301.00;;;;5063702;28;20233;-76
2022/07/05 03:54:18;;;;;;;0.00;0.00;;;16.20;99.90;15.00;96317.00;;;;5053937;28;20202;-75
2022/07/05 03:56:47;;;;;;;0.00;0.00;;;16.30;99.90;15.10;96314.00;;;;5052658;28;20201;-75
2022/07/05 03:59:16;;;;;;;0.00;0.00;;;16.30;99.90;15.00;96329.00;;;;5052216;28;20194;-76
2022/07/05 04:01:45;;;;;;;0.00;0.00;;;16.40;99.90;15.00;96312.00;;;;5054431;28;20214;-75
2022/07/05 04:04:14;;;;;;;0.00;0.00;;;16.30;99.90;14.90;96296.00;;;;5052868;28;20600;-75
2022/07/05 04:06:43;;;;;;;0.10;0.10;;;16.20;99.90;14.90;96299.00;;;;5052144;28;20244;-75
2022/07/05 04:09:13;;;;;;;0.00;0.00;;;16.20;99.90;14.90;96285.00;;;;5052600;28;20195;-76
2022/07/05 04:11:41;;;;;;;0.00;0.00;;;16.10;99.90;14.90;96286.00;;;;5052714;28;20202;-75
2022/07/05 04:14:10;;;;;;;0.03;0.03;;;16.10;99.90;14.90;96286.00;;;;5053577;28;20277;-75
2022/07/05 04:16:39;;;;;;;0.10;0.10;;;16.10;99.90;14.80;96280.00;;;;5052424;28;20221;-76
2022/07/05 04:19:07;;;;;;;0.00;0.00;;;16.00;99.90;14.70;96272.00;;;;5052435;28;20281;-75
2022/07/05 04:21:38;;;;;;;0.10;0.10;;;15.90;99.90;14.80;96282.00;;;;5052522;28;20669;-76
2022/07/05 04:24:07;;;;;;;0.00;0.00;;;16.00;99.90;14.70;96271.00;;;;5053678;28;20218;-76
2022/07/05 04:26:37;;;;;;;0.00;0.00;;;15.80;99.90;14.60;96265.00;;;;5054940;28;20206;-76
2022/07/05 04:29:06;;;;;;;0.10;0.10;;;15.80;99.90;14.70;96267.00;;;;5052524;28;20199;-75
2022/07/05 04:31:38;;;;;;;0.00;0.00;;;15.80;99.90;14.70;96275.00;;;;5057988;28;20195;-75
2022/07/05 04:34:06;;;;;;;0.00;0.00;;;15.90;99.90;14.70;96289.00;;;;5056960;28;20202;-76
2022/07/05 04:36:40;;;;;;;0.10;0.10;;;15.90;99.90;14.70;96293.00;;;;5056160;28;20228;-76
2022/07/05 04:39:09;;;;;;;0.00;0.00;;;15.90;99.90;14.90;96301.00;;;;5055047;28;20214;-76
2022/07/05 04:41:42;;;;;;;0.00;0.00;;;16.00;99.90;14.90;96320.00;;;;5055384;28;20765;-76
2022/07/05 04:44:12;;;;;;;0.00;0.00;;;16.10;99.90;15.00;96324.00;;;;5055632;28;20598;-76
2022/07/05 04:46:41;;;;;;;0.00;0.00;;;16.20;99.90;15.00;96329.00;;;;5055737;28;20194;-76
2022/07/05 04:49:09;;;;;;;0.00;0.00;;;16.30;99.90;14.90;96286.00;;;;5055403;28;20202;-76
2022/07/05 04:51:37;;;;;;;0.00;0.00;;;16.20;99.90;14.90;96281.00;;;;5057749;28;20217;-76
2022/07/05 04:54:10;;;;;;;0.00;0.00;;;16.10;99.90;14.90;96306.00;;;;5057252;28;20198;-76
2022/07/05 04:56:38;;;;;;;0.00;0.00;;;16.10;99.90;14.90;96290.00;;;;5056454;28;20213;-76
2022/07/05 04:59:08;;;;;;;0.00;0.00;;;16.10;99.90;14.90;96268.00;;;;5059867;28;20233;-76
2022/07/05 05:01:35;;;;;;;0.00;0.00;;;16.10;99.90;14.90;96272.00;;;;5060583;28;20265;-76
2022/07/05 05:04:04;;;;;;;0.00;0.00;;;16.00;99.90;15.00;96304.00;;;;5054374;28;20732;-76
2022/07/05 05:06:32;;;;;;;0.00;0.00;;;16.10;99.90;15.10;96320.00;;;;5052923;28;20343;-76
2022/07/05 05:09:00;;;;;;;0.00;0.00;;;16.20;99.90;15.30;96343.00;;;;5052818;28;20658;-76
2022/07/05 05:11:28;;;;;;;0.00;0.00;;;16.40;99.90;15.30;96345.00;;;;5065354;28;20248;-76
2022/07/05 05:13:56;;;;;;;0.00;0.00;;;16.40;99.90;15.30;96337.00;;;;5052718;28;20191;-75
2022/07/05 05:16:25;;;;;;;0.00;0.00;;;16.50;99.90;15.40;96336.00;;;;5052866;28;20209;-75
2022/07/05 05:18:54;;;;;;;0.00;0.00;;;16.60;99.90;15.60;96359.00;;;;5052251;28;20205;-75
2022/07/05 05:21:21;;;;;;;0.00;0.00;;;16.70;99.90;15.60;96367.00;;;;5053150;28;20210;-75
2022/07/05 05:23:50;;;;;;;0.00;0.00;;;16.80;99.90;15.80;96350.00;;;;5052594;28;20221;-74
2022/07/05 05:26:18;;;;;;;0.00;0.00;;;16.90;99.90;15.90;96345.00;;;;5052276;28;20586;-75
2022/07/05 05:28:45;;;;;;;0.00;0.00;;;17.00;99.90;15.90;96358.00;;;;5052769;28;20296;-75
2022/07/05 05:31:14;;;;;;;0.00;0.00;;;17.10;99.90;16.10;96361.00;;;;5053192;28;20214;-75
2022/07/05 05:33:43;;;;;;;0.00;0.00;;;17.20;99.90;16.20;96371.00;;;;5055780;28;20190;-75
2022/07/05 05:36:12;;;;;;;0.00;0.00;;;17.30;99.90;16.30;96406.00;;;;5055730;28;20205;-75
2022/07/05 05:38:40;;;;;;;0.00;0.00;;;17.40;99.90;16.30;96379.00;;;;5052139;28;20206;-75
2022/07/05 05:41:08;;;;;;;0.00;0.00;;;17.40;99.90;16.40;96387.00;;;;5052113;28;20217;-75
2022/07/05 05:43:36;;;;;;;0.00;0.00;;;17.60;99.90;16.50;96389.00;;;;5052376;28;20191;-75
2022/07/05 05:46:04;;;;;;;0.00;0.00;;;17.70;99.90;16.60;96389.00;;;;5052674;28;20220;-75
2022/07/05 05:48:32;;;;;;;0.00;0.00;;;17.70;99.90;16.70;96405.00;;;;5051879;28;20190;-75
2022/07/05 05:51:02;;;;;;;0.08;0.08;;;17.80;99.90;16.80;96429.00;;;;5052002;28;20224;-75
2022/07/05 05:53:30;;;;;;;0.00;0.00;;;17.90;99.90;17.10;96428.00;;;;5052256;28;20505;-75
2022/07/05 05:55:58;;;;;;;0.00;0.00;;;18.10;99.90;17.20;96445.00;;;;5052507;28;20243;-75
2022/07/05 05:58:26;;;;;;;0.00;0.00;;;18.30;99.90;17.40;96452.00;;;;5052298;28;20190;-75
2022/07/05 06:00:54;;;;;;;0.00;0.00;;;18.40;99.90;17.50;96470.00;;;;5052022;28;20206;-75
2022/07/05 06:03:24;;;;;;;0.10;0.10;;;18.60;99.90;17.80;96492.00;;;;5051969;28;20202;-75
2022/07/05 06:05:52;;;;;;;0.08;0.08;;;18.80;99.90;17.90;96505.00;;;;5052136;28;20240;-76
2022/07/05 06:08:23;;;;;;;0.00;0.00;;;18.90;99.90;18.10;96518.00;;;;5051764;28;20182;-75
2022/07/05 06:10:51;;;;;;;0.00;0.00;;;19.10;99.90;18.20;96525.00;;;;5051908;28;20206;-75
2022/07/05 06:13:27;;;;;;;0.00;0.00;;;19.20;99.90;18.30;96519.00;;;;5054621;28;20198;-75
2022/07/05 06:15:55;;;;;;;0.00;0.00;;;19.30;99.90;18.30;96516.00;;;;5053780;28;20380;-76
2022/07/05 06:18:24;;;;;;;0.00;0.00;;;19.40;99.90;18.50;96532.00;;;;5062497;28;20190;-76
2022/07/05 06:20:52;;;;;;;0.00;0.00;;;19.60;99.90;18.60;96539.00;;;;5053830;28;20665;-76
2022/07/05 06:23:21;;;;;;;0.00;0.00;;;19.70;99.90;18.80;96560.00;;;;5052021;28;20194;-76
2022/07/05 06:25:49;;;;;;;0.00;0.00;;;19.80;99.90;18.90;96541.00;;;;5051737;28;20225;-75
2022/07/05 06:28:17;;;;;;;0.00;0.00;;;19.90;99.90;19.00;96566.00;;;;5051851;28;20720;-76
2022/07/05 06:30:45;;;;;;;0.00;0.00;;;20.10;99.90;19.30;96555.00;;;;5052684;28;20693;-76
2022/07/05 06:33:13;;;;;;;0.00;0.00;;;20.30;99.90;19.40;96557.00;;;;5051863;28;20650;-76
2022/07/05 06:35:41;;;;;;;0.00;0.00;;;20.40;99.90;19.60;96572.00;;;;5052511;28;20194;-76
2022/07/05 06:38:10;;;;;;;0.00;0.00;;;20.60;99.90;19.80;96579.00;;;;5051516;28;20674;-75
2022/07/05 06:40:43;;;;;;;0.00;0.00;;;20.80;99.90;19.90;96582.00;;;;5052564;28;20206;-76
2022/07/05 06:43:14;;;;;;;0.00;0.00;;;20.90;99.90;19.90;96534.00;;;;5051244;28;20190;-76
2022/07/05 06:45:55;;;;;;;0.00;0.00;;;20.90;99.90;19.90;96570.00;;;;5050711;28;20226;-76
2022/07/05 06:48:24;;;;;;;0.00;0.00;;;21.00;99.90;20.10;96592.00;;;;5052356;28;20273;-76
2022/07/05 06:50:52;;;;;;;0.00;0.00;;;21.10;99.90;20.20;96591.00;;;;5051644;28;20206;-76
2022/07/05 06:53:19;;;;;;;0.00;0.00;;;21.20;99.90;20.30;96598.00;;;;5052803;28;20190;-75
2022/07/05 06:55:50;;;;;;;0.00;0.00;;;21.30;99.90;20.40;96609.00;;;;5054287;28;20191;-75
2022/07/05 06:58:23;;;;;;;0.00;0.00;;;21.40;99.90;20.50;96602.00;;;;5055141;28;20190;-76
2022/07/05 07:00:51;;;;;;;0.00;0.00;;;21.50;99.90;20.50;96605.00;;;;5054633;28;20577;-75
2022/07/05 07:03:39;;;;;;;0.00;0.00;;;21.50;99.90;20.60;96621.00;;;;5055334;28;20206;-75
2022/07/05 07:06:27;;;;;;;0.00;0.00;;;21.60;99.80;20.70;96619.00;;;;5055184;28;20225;-75
2022/07/05 07:11:41;;;;;;;0.00;0.00;;;21.80;99.10;20.80;96608.00;;;;5054937;28;20274;-75
2022/07/05 07:14:09;;;;;;;0.00;0.00;;;21.80;99.50;20.90;96618.00;;;;5054841;28;20190;-76
2022/07/05 07:16:37;;;;;;;0.00;0.00;;;21.80;99.50;21.00;96621.00;;;;5054484;28;20194;-76
2022/07/05 07:19:05;;;;;;;0.00;0.00;;;21.90;99.30;20.90;96615.00;;;;5054563;28;20252;-76
2022/07/05 07:21:42;;;;;;;0.00;0.00;;;22.00;98.80;21.10;96629.00;;;;5054594;28;20216;-76
2022/07/05 07:24:11;;;;;;;0.00;0.00;;;22.10;98.60;21.20;96567.00;;;;5054604;28;20773;-76
2022/07/05 07:29:27;;;;;;;0.00;0.00;;;22.30;98.50;21.50;96661.00;;;;5054266;28;20580;-75
2022/07/05 07:31:55;;;;;;;0.00;0.00;;;22.40;98.40;21.70;96662.00;;;;5054289;28;20197;-75
2022/07/05 07:34:23;;;;;;;0.00;0.00;;;22.60;98.20;21.90;96668.00;;;;5054390;28;20194;-77
2022/07/05 07:36:52;;;;;;;0.00;0.00;;;22.70;98.00;22.00;96667.00;;;;5053924;28;20666;-76
2022/07/05 07:39:20;;;;;;;0.00;0.00;;;22.90;97.50;22.10;96680.00;;;;5053830;28;20617;-76
2022/07/05 07:41:49;;;;;;;0.00;0.00;;;23.00;97.50;22.30;96669.00;;;;5054039;28;20182;-76
2022/07/05 07:44:17;;;;;;;0.00;0.00;;;23.20;97.00;22.50;96672.00;;;;5053880;28;20198;-76
2022/07/05 07:46:46;;;;;;;0.00;0.00;;;23.30;96.70;22.70;96668.00;;;;5054151;28;20279;-76
2022/07/05 07:49:14;;;;;;;0.00;0.00;;;23.50;96.10;22.80;96682.00;;;;5053903;28;20210;-76
2022/07/05 07:51:42;;;;;;;0.00;0.00;;;23.70;96.30;22.90;96688.00;;;;5054099;28;20195;-76
2022/07/05 07:54:11;;;;;;;0.00;0.00;;;23.70;96.00;23.10;96703.00;;;;5053832;28;20195;-76
2022/07/05 07:56:39;;;;;;;0.00;0.00;;;23.90;95.60;23.30;96715.00;;;;5053667;28;20244;-76
2022/07/05 07:59:09;;;;;;;0.00;0.00;;;24.10;95.20;23.50;96723.00;;;;5053876;28;20203;-76
2022/07/05 08:01:37;;;;;;;0.00;0.00;;;24.20;94.80;23.50;96704.00;;;;5054751;28;20246;-76
2022/07/05 08:04:13;;;;;;;0.00;0.00;;;24.30;94.50;23.70;96733.00;;;;5054365;28;20201;-76
2022/07/05 08:06:43;;;;;;;0.00;0.00;;;24.50;94.20;23.70;96706.00;;;;5055225;28;20218;-76
2022/07/05 08:09:13;;;;;;;0.00;0.00;;;24.50;94.00;23.90;96728.00;;;;5053825;28;20182;-77
2022/07/05 08:11:46;;;;;;;0.00;0.00;;;24.70;94.10;24.10;96721.00;;;;5053568;28;20699;-77
2022/07/05 08:14:17;;;;;;;0.00;0.00;;;24.90;93.50;24.30;96747.00;;;;5053763;28;20530;-76
2022/07/05 08:16:48;;;;;;;0.00;0.00;;;25.10;93.20;24.40;96741.00;;;;5053421;28;20198;-76
2022/07/05 08:22:07;;;;;;;0.00;0.00;;;25.30;92.00;24.80;96753.00;;;;5053086;28;20569;-76
2022/07/05 08:24:37;;;;;;;0.00;0.00;;;25.50;92.10;24.90;96708.00;;;;5053130;28;20190;-76
2022/07/05 08:27:05;;;;;;;0.00;0.00;;;25.70;92.30;24.90;96740.00;;;;5052953;28;20214;-76
2022/07/05 08:29:35;;;;;;;0.00;0.00;;;25.70;92.30;25.00;96761.00;;;;5051443;28;20218;-76
2022/07/05 08:32:05;;;;;;;0.00;0.00;;;25.80;91.10;25.20;96740.00;;;;5052846;28;20533;-76
2022/07/05 08:34:33;;;;;;;0.00;0.00;;;25.90;91.60;25.40;96751.00;;;;5053483;28;20190;-77
2022/07/05 08:37:01;;;;;;;0.00;0.00;;;26.20;91.50;25.50;96763.00;;;;5052796;28;20209;-76
2022/07/05 08:39:30;;;;;;;0.00;0.00;;;26.20;91.10;25.70;96771.00;;;;5052760;28;20210;-76
2022/07/05 08:41:59;;;;;;;0.00;0.00;;;26.40;91.30;25.70;96759.00;;;;5052902;28;20583;-76
2022/07/05 08:44:32;;;;;;;0.00;0.00;;;26.50;90.70;25.70;96777.00;;;;5053449;28;20187;-76
2022/07/05 08:47:04;;;;;;;0.00;0.00;;;26.40;90.70;25.60;96773.00;;;;5053400;28;20218;-74
2022/07/05 08:49:34;;;;;;;0.00;0.00;;;26.30;90.40;25.40;96743.00;;;;5052369;28;20436;-75
2022/07/05 08:52:05;;;;;;;0.00;0.00;;;26.30;91.00;25.70;96778.00;;;;5052443;28;20183;-76
2022/07/05 08:54:34;;;;;;;0.00;0.00;;;26.50;90.50;26.00;96766.00;;;;5052287;28;20196;-75
2022/07/05 08:57:02;;;;;;;0.00;0.00;;;26.70;90.30;26.10;96770.00;;;;5052566;28;20584;-75
2022/07/05 08:59:41;;;;;;;0.00;0.00;;;26.80;90.00;26.40;96787.00;;;;5058959;28;20214;-75
2022/07/05 09:02:16;;;;;;;0.00;0.00;;;27.00;90.00;26.70;96795.00;;;;5053841;28;20569;-76
2022/07/05 09:04:46;;;;;;;0.00;0.00;;;27.30;89.50;26.80;96783.00;;;;5052403;28;20208;-75
2022/07/05 09:07:18;;;;;;;0.00;0.00;;;27.40;89.20;27.00;96799.00;;;;5052116;28;20233;-76
2022/07/05 09:09:51;;;;;;;0.00;0.00;;;27.60;88.80;27.30;96804.00;;;;5052038;28;20264;-76
2022/07/05 09:12:19;;;;;;;0.00;0.00;;;27.80;88.00;27.40;96809.00;;;;5051554;28;20698;-76
2022/07/05 09:14:53;;;;;;;0.00;0.00;;;27.90;86.30;27.20;96807.00;;;;5052311;28;20560;-76
2022/07/05 09:17:25;;;;;;;0.00;0.00;;;27.90;85.60;26.80;96790.00;;;;5051566;28;20186;-76
2022/07/05 09:20:08;;;;;;;0.00;0.00;;;27.80;85.40;27.00;96815.00;;;;5052026;28;20207;-76
2022/07/05 09:22:45;;;;;;;0.00;0.00;;;27.70;85.40;27.20;96816.00;;;;5052792;28;20665;-76
2022/07/05 09:25:19;;;;;;;0.00;0.00;;;27.90;85.00;27.20;96802.00;;;;5051955;28;20194;-75
2022/07/05 09:27:57;;;;;;;0.00;0.00;;;27.90;83.90;27.20;96804.00;;;;5052239;28;20240;-76
2022/07/05 09:30:29;;;;;;;0.00;0.00;;;27.90;83.90;27.30;96806.00;;;;5054373;28;20218;-76
2022/07/05 09:33:10;;;;;;;0.00;0.00;;;27.90;84.40;26.60;96759.00;;;;5053204;28;20196;-76
2022/07/05 09:35:40;;;;;;;0.00;0.00;;;27.30;82.30;26.60;96765.00;;;;5052958;28;20551;-76
2022/07/05 09:38:19;;;;;;;0.00;0.00;;;27.30;83.00;25.80;96723.00;;;;5052634;28;20210;-76
2022/07/05 09:40:49;;;;;;;0.00;0.00;;;26.80;84.30;26.30;96768.00;;;;5053018;28;20249;-77
2022/07/05 09:43:19;;;;;;;0.00;0.00;;;27.10;84.90;26.40;96772.00;;;;5053081;28;20230;-76
2022/07/05 09:45:53;;;;;;;0.00;0.00;;;27.10;84.70;26.40;96779.00;;;;5053104;28;20740;-77
2022/07/05 09:48:23;;;;;;;0.00;0.00;;;27.20;84.00;26.40;96768.00;;;;5052944;28;20201;-76
2022/07/05 09:51:06;;;;;;;0.00;0.00;;;27.20;84.30;26.80;96778.00;;;;5052088;28;20580;-76
2022/07/05 09:53:58;;;;;;;0.00;0.00;;;27.40;84.40;27.20;96800.00;;;;5052116;28;20198;-76
2022/07/05 09:56:30;;;;;;;0.00;0.00;;;27.70;83.90;27.70;96812.00;;;;5052110;28;20202;-77
2022/07/05 09:59:15;;;;;;;0.00;0.00;;;28.00;83.10;27.90;96829.00;;;;5052340;28;20183;-76
2022/07/05 10:01:43;;;;;;;0.00;0.00;;;28.30;82.00;28.10;96818.00;;;;5052083;28;20192;-76
2022/07/05 10:04:13;;;;;;;0.00;0.00;;;28.60;81.30;27.60;96806.00;;;;5052425;28;20248;-76
2022/07/05 10:06:42;;;;;;;0.00;0.00;;;28.30;82.00;27.90;96821.00;;;;5052224;28;20206;-77
2022/07/05 10:09:11;;;;;;;0.00;0.00;;;28.50;81.40;28.20;96819.00;;;;5052727;28;20194;-75
2022/07/05 10:11:44;;;;;;;0.00;0.00;;;28.60;80.60;28.00;96829.00;;;;5053192;28;20213;-77
2022/07/05 10:14:17;;;;;;;0.00;0.00;;;28.70;80.40;27.90;96809.00;;;;5053126;28;20198;-76
2022/07/05 10:16:53;;;;;;;0.00;0.00;;;28.60;80.60;27.60;96829.00;;;;5052944;28;20198;-76
2022/07/05 10:19:22;;;;;;;0.00;0.00;;;28.40;79.90;27.50;96819.00;;;;5053643;28;20213;-76
2022/07/05 10:21:52;;;;;;;0.00;0.00;;;28.30;80.00;27.60;96816.00;;;;5057049;28;20206;-75
2022/07/05 10:24:41;;;;;;;0.00;0.00;;;28.30;79.70;27.90;96836.00;;;;5056032;28;20203;-77
2022/07/05 10:27:11;;;;;;;0.00;0.00;;;28.50;79.50;27.70;96826.00;;;;5056094;28;20215;-77
2022/07/05 10:29:40;;;;;;;0.00;0.00;;;28.30;78.60;27.50;96793.00;;;;5057347;28;20233;-76
2022/07/05 10:32:10;;;;;;;0.00;0.00;;;28.30;77.20;28.00;96847.00;;;;5061342;28;20274;-77
2022/07/05 10:34:42;;;;;;;0.00;0.00;;;28.50;77.70;28.00;96827.00;;;;5059572;28;20657;-77
2022/07/05 10:37:28;;;;;;;0.00;0.00;;;28.60;77.50;28.40;96815.00;;;;5056956;28;20202;-77
2022/07/05 10:39:59;;;;;;;0.00;0.00;;;29.00;76.70;28.80;96850.00;;;;5055508;28;20709;-77
2022/07/05 10:42:34;;;;;;;0.00;0.00;;;29.20;76.60;29.20;96862.00;;;;5055227;28;20281;-77
2022/07/05 10:45:03;;;;;;;0.00;0.00;;;29.50;75.70;28.80;96839.00;;;;5055938;28;20672;-77
2022/07/05 10:47:32;;;;;;;0.00;0.00;;;29.40;73.40;28.40;96825.00;;;;5057389;28;20214;-76
2022/07/05 10:50:05;;;;;;;0.00;0.00;;;29.20;74.00;28.20;96812.00;;;;5059487;28;20206;-76
2022/07/05 10:52:33;;;;;;;0.00;0.00;;;29.00;75.10;28.80;96844.00;;;;5060332;28;20194;-76
2022/07/05 10:55:23;;;;;;;0.00;0.00;;;29.30;74.30;29.00;96852.00;;;;5056729;28;20796;-76
2022/07/05 10:58:21;;;;;;;0.00;0.00;;;29.50;74.10;28.90;96850.00;;;;5056181;28;20200;-75
2022/07/05 11:01:39;;;;;;;0.00;0.00;;;29.60;73.20;29.10;96853.00;;;;5057864;28;20720;-76
2022/07/05 11:04:35;;;;;;;0.00;0.00;;;29.70;72.90;28.80;96841.00;;;;5058765;28;20680;-76
2022/07/05 11:07:05;;;;;;;0.00;0.00;;;29.60;72.10;28.60;96836.00;;;;5056427;28;20210;-76
2022/07/05 11:09:33;;;;;;;0.00;0.00;;;29.30;72.90;28.70;96851.00;;;;5055627;28;20221;-76
2022/07/05 11:12:09;;;;;;;0.00;0.00;;;29.40;72.90;28.70;96841.00;;;;5055058;28;20194;-75
2022/07/05 11:15:08;;;;;;;0.00;0.00;;;29.30;72.60;28.70;96844.00;;;;5058059;28;20187;-76
2022/07/05 11:17:36;;;;;;;0.00;0.00;;;29.20;72.10;28.50;96825.00;;;;5076915;28;20228;-75
2022/07/05 11:20:30;;;;;;;0.00;0.00;;;29.10;72.00;28.20;96812.00;;;;5067610;28;20229;-76
2022/07/05 11:23:12;;;;;;;0.00;0.00;;;29.00;72.20;27.50;96815.00;;;;5071175;28;20222;-75